Time;durP1;ratioP1;P1;durP2;ratioP2;P2;SDS_P1;SDS_P2;PMS_P1;PMS_P2;Temp;Humidity;BMP_temperature;BMP_pressure;BME280_temperature;BME280_humidity;BME280_pressure;Samples;Min_cycle;Max_cycle;Signal;HPM_P1;HPM_P2
2022/02/07 00:02:07;;;;;;;5.80;2.40;;;3.00;99.90;;;;;;5049392;28;20874;-60
2022/02/07 00:04:46;;;;;;;5.57;2.47;;;2.90;99.90;;;;;;5059573;28;20461;-61
2022/02/07 00:07:19;;;;;;;5.77;1.83;;;2.90;99.90;;;;;;5060627;28;20903;-55
2022/02/07 00:09:46;;;;;;;4.37;1.80;;;2.80;99.90;;;;;;5075439;28;20556;-59
2022/02/07 00:12:14;;;;;;;3.00;1.67;;;2.70;99.90;;;;;;5059202;28;20462;-61
2022/02/07 00:14:41;;;;;;;6.73;1.90;;;2.70;95.50;;;;;;5059132;28;20441;-61
2022/02/07 00:17:09;;;;;;;4.50;2.20;;;2.70;83.80;;;;;;5059045;28;20766;-60
2022/02/07 00:19:36;;;;;;;4.83;1.87;;;2.60;75.70;;;;;;5059283;28;20478;-61
2022/02/07 00:22:04;;;;;;;8.47;2.40;;;2.60;64.70;;;;;;5076442;28;20489;-62
2022/02/07 00:24:31;;;;;;;3.20;1.83;;;2.50;37.60;;;;;;5075728;28;20565;-62
2022/02/07 00:27:05;;;;;;;4.73;1.80;;;2.50;16.50;;;;;;5059239;28;20886;-63
2022/02/07 00:29:32;;;;;;;5.37;1.83;;;2.50;8.70;;;;;;5059280;28;20494;-61
2022/02/07 00:31:59;;;;;;;2.77;1.50;;;2.50;8.90;;;;;;5059498;28;20459;-60
2022/02/07 00:34:27;;;;;;;4.13;2.00;;;2.40;25.60;;;;;;5059078;28;20478;-63
2022/02/07 00:36:55;;;;;;;4.73;2.00;;;2.40;86.90;;;;;;5058986;28;20781;-63
2022/02/07 00:39:29;;;;;;;8.17;2.80;;;2.40;99.90;;;;;;5062377;28;20453;-61
2022/02/07 00:42:02;;;;;;;5.30;2.60;;;2.40;99.90;;;;;;5079234;28;20468;-63
2022/02/07 00:44:31;;;;;;;6.80;3.20;;;2.40;99.90;;;;;;5078971;28;20465;-63
2022/02/07 00:47:05;;;;;;;9.73;2.73;;;2.40;99.90;;;;;;5062606;28;20782;-64
2022/02/07 00:49:34;;;;;;;7.90;2.47;;;2.30;1.00;;;;;;5058856;28;20465;-63
2022/02/07 00:52:01;;;;;;;5.67;2.30;;;2.30;1.00;;;;;;5058591;28;20462;-64
2022/02/07 00:54:28;;;;;;;8.00;2.30;;;2.30;1.00;;;;;;5058643;28;20520;-64
2022/02/07 00:56:55;;;;;;;10.20;2.70;;;2.40;1.00;;;;;;5069438;28;21098;-64
2022/02/07 00:59:22;;;;;;;12.13;3.17;;;2.40;1.00;;;;;;5078678;28;20458;-64
2022/02/07 01:01:52;;;;;;;7.87;2.60;;;2.40;1.00;;;;;;5077795;28;20461;-64
2022/02/07 01:04:19;;;;;;;6.53;2.60;;;2.30;1.00;;;;;;5077683;28;20511;-64
2022/02/07 01:06:47;;;;;;;12.60;2.80;;;2.40;1.00;;;;;;5071271;28;20493;-64
2022/02/07 01:09:18;;;;;;;8.50;2.63;;;2.30;1.00;;;;;;5057834;28;20493;-64
2022/02/07 01:14:45;;;;;;;10.43;2.73;;;2.30;1.00;;;;;;5054186;28;20909;-64
2022/02/07 01:18:08;;;;;;;7.27;2.93;;;2.30;1.00;;;;;;5058428;28;20557;-64
2022/02/07 01:20:50;;;;;;;5.23;2.60;;;2.30;1.00;;;;;;5057659;28;20454;-64
2022/02/07 01:23:58;;;;;;;6.93;2.37;;;2.20;1.00;;;;;;5064852;28;20504;-64
2022/02/07 01:46:16;;;;;;;10.53;2.60;;;2.20;99.90;;;;;;5076593;28;20499;-64
2022/02/07 01:52:08;;;;;;;6.40;3.00;;;2.20;99.90;;;;;;5015668;28;20775;-64
2022/02/07 01:54:41;;;;;;;7.93;2.67;;;2.10;99.90;;;;;;5008426;28;20511;-64
2022/02/07 01:57:12;;;;;;;13.80;3.70;;;2.20;1.00;;;;;;5036463;28;20470;-64
2022/02/07 01:59:39;;;;;;;13.70;3.50;;;2.20;1.00;;;;;;5057981;28;20465;-64
2022/02/07 02:02:07;;;;;;;8.43;3.00;;;2.30;1.00;;;;;;5057425;28;20466;-64
2022/02/07 02:04:35;;;;;;;11.37;3.10;;;2.30;1.00;;;;;;5060013;28;20908;-64
2022/02/07 02:07:06;;;;;;;11.57;3.47;;;2.30;1.00;;;;;;5077314;28;20465;-64
2022/02/07 02:09:33;;;;;;;8.23;2.97;;;2.30;1.00;;;;;;5075621;28;20458;-64
2022/02/07 02:12:02;;;;;;;8.27;3.57;;;2.40;1.00;;;;;;5076988;28;20465;-64
2022/02/07 02:14:51;;;;;;;14.60;3.77;;;2.40;1.00;;;;;;5076895;28;20469;-64
2022/02/07 02:36:44;;;;;;;9.70;2.83;;;2.70;99.90;;;;;;5057381;28;20731;-60
2022/02/07 06:27:52;;;;;;;12.33;3.80;;;3.00;99.90;;;;;;5056804;28;20417;-63
2022/02/07 06:30:19;;;;;;;14.40;3.80;;;3.00;99.90;;;;;;5056891;28;20544;-63
2022/02/07 06:32:46;;;;;;;14.23;4.10;;;3.10;99.90;;;;;;5058183;28;20823;-63
2022/02/07 06:35:13;;;;;;;19.63;4.63;;;3.10;99.90;;;;;;5077007;28;20460;-63
2022/02/07 06:37:41;;;;;;;12.60;5.40;;;3.10;99.90;;;;;;5077464;28;20865;-62
2022/02/07 06:40:10;;;;;;;13.90;3.57;;;3.10;99.90;;;;;;5075868;28;20458;-63
2022/02/07 06:42:37;;;;;;;16.17;5.23;;;3.10;99.90;;;;;;5076722;28;20442;-62
2022/02/07 06:45:06;;;;;;;15.77;4.43;;;3.10;99.90;;;;;;5061142;28;20876;-63
2022/02/07 06:47:36;;;;;;;13.60;5.00;;;3.10;99.90;;;;;;5055708;28;20515;-63
2022/02/07 06:50:03;;;;;;;20.40;4.80;;;3.10;1.00;;;;;;5055225;28;20482;-63
2022/02/07 06:52:30;;;;;;;17.43;4.13;;;3.00;1.00;;;;;;5055570;28;20450;-63
2022/02/07 06:54:57;;;;;;;19.63;5.23;;;3.10;1.00;;;;;;5055498;28;20769;-63
2022/02/07 06:57:26;;;;;;;16.77;4.57;;;3.00;99.90;;;;;;5053040;28;20520;-63
2022/02/07 06:59:54;;;;;;;16.00;5.40;;;3.00;99.90;;;;;;5056769;28;20531;-63
2022/02/07 07:02:26;;;;;;;18.00;5.13;;;3.00;1.00;;;;;;5059467;28;20425;-63
2022/02/07 07:04:55;;;;;;;15.70;4.33;;;3.00;1.00;;;;;;5059312;28;20501;-63
2022/02/07 07:07:22;;;;;;;18.50;5.53;;;2.90;99.90;;;;;;5059669;28;20838;-63
2022/02/07 07:09:49;;;;;;;14.80;5.07;;;3.00;1.00;;;;;;5059169;28;20460;-63
2022/02/07 07:12:18;;;;;;;21.07;5.20;;;3.00;1.00;;;;;;5059990;28;20436;-63
2022/02/07 07:14:52;;;;;;;17.67;5.03;;;3.00;1.00;;;;;;5056323;28;20455;-63
2022/02/07 07:17:21;;;;;;;17.50;5.03;;;3.10;1.00;;;;;;5059187;28;20906;-63
2022/02/07 07:19:50;;;;;;;23.50;5.83;;;3.10;1.00;;;;;;5059147;28;20458;-63
2022/02/07 07:22:16;;;;;;;19.77;4.70;;;3.10;1.00;;;;;;5058294;28;20494;-63
2022/02/07 07:24:45;;;;;;;12.23;4.97;;;3.10;1.00;;;;;;5058555;28;20454;-63
2022/02/07 07:27:23;;;;;;;15.63;4.60;;;3.10;1.00;;;;;;5058976;28;20462;-63
2022/02/07 07:29:50;;;;;;;16.53;6.30;;;3.10;1.00;;;;;;5057428;28;20968;-63
2022/02/07 07:32:21;;;;;;;15.07;3.93;;;3.10;1.00;;;;;;5069679;28;20469;-63
2022/02/07 07:34:50;;;;;;;14.17;4.63;;;3.20;1.00;;;;;;5079393;28;20464;-63
2022/02/07 07:37:18;;;;;;;19.97;4.27;;;3.30;99.90;;;;;;5063088;28;20945;-63
2022/02/07 07:39:46;;;;;;;19.57;5.20;;;3.30;80.20;;;;;;5059591;28;20466;-63
2022/02/07 07:42:13;;;;;;;12.97;4.70;;;3.40;1.00;;;;;;5065212;28;20944;-63
2022/02/07 07:44:40;;;;;;;15.37;4.50;;;3.40;1.00;;;;;;5080131;28;20910;-63
2022/02/07 07:47:10;;;;;;;23.73;4.97;;;3.40;99.90;;;;;;5069378;28;20465;-63
2022/02/07 07:49:45;;;;;;;15.53;4.30;;;3.50;99.90;;;;;;5059105;28;20551;-63
2022/02/07 07:52:19;;;;;;;17.27;4.50;;;3.60;1.00;;;;;;5060490;28;20444;-63
2022/02/07 07:54:53;;;;;;;19.77;5.13;;;3.60;1.00;;;;;;5079069;28;20750;-63
2022/02/07 08:02:52;;;;;;;13.80;4.27;;;3.70;99.90;;;;;;5075792;28;20442;-63
2022/02/07 08:05:27;;;;;;;23.00;4.90;;;3.70;99.90;;;;;;5060111;28;20780;-63
2022/02/07 08:08:07;;;;;;;14.80;3.80;;;3.80;99.90;;;;;;5059756;28;20717;-61
2022/02/07 08:10:50;;;;;;;16.03;4.90;;;3.90;99.90;;;;;;5059225;28;20576;-61
2022/02/07 08:13:18;;;;;;;11.93;4.10;;;3.80;99.90;;;;;;5060124;28;20502;-63
2022/02/07 08:15:46;;;;;;;19.70;3.73;;;3.90;99.90;;;;;;5070183;28;20462;-63
2022/02/07 08:18:13;;;;;;;13.80;3.77;;;3.90;97.50;;;;;;5058361;28;20466;-63
2022/02/07 08:20:40;;;;;;;10.63;4.17;;;3.90;38.00;;;;;;5058677;28;20483;-62
2022/02/07 08:23:10;;;;;;;14.83;4.60;;;3.90;34.40;;;;;;5058093;28;20490;-62
2022/02/07 08:25:37;;;;;;;17.30;4.13;;;4.00;16.30;;;;;;5060371;28;20561;-64
2022/02/07 08:28:06;;;;;;;13.90;4.13;;;4.00;15.10;;;;;;5057554;28;20462;-63
2022/02/07 08:30:33;;;;;;;12.70;4.40;;;4.00;2.70;;;;;;5077405;28;20465;-64
2022/02/07 08:33:03;;;;;;;20.03;4.33;;;4.10;1.00;;;;;;5078697;28;20564;-64
2022/02/07 08:35:33;;;;;;;16.50;4.50;;;4.00;1.00;;;;;;5066762;28;20440;-62
2022/02/07 08:38:00;;;;;;;23.40;5.00;;;4.10;1.00;;;;;;5058581;28;20466;-62
2022/02/07 08:40:33;;;;;;;24.67;5.80;;;4.20;1.00;;;;;;5057597;28;20529;-63
2022/02/07 08:43:00;;;;;;;20.03;6.13;;;4.30;1.00;;;;;;5058986;28;20524;-64
2022/02/07 08:45:27;;;;;;;21.50;5.77;;;4.30;1.00;;;;;;5065846;28;20440;-62
2022/02/07 08:47:56;;;;;;;19.07;6.47;;;4.30;1.00;;;;;;5078664;28;20458;-62
2022/02/07 08:50:28;;;;;;;20.67;7.27;;;4.30;1.00;;;;;;5078517;28;20491;-62
2022/02/07 08:52:58;;;;;;;15.27;6.80;;;4.20;1.00;;;;;;5057984;28;20462;-62
2022/02/07 08:55:31;;;;;;;15.37;6.17;;;4.20;1.00;;;;;;5059019;28;20466;-62
2022/02/07 08:58:08;;;;;;;18.10;6.63;;;4.20;1.00;;;;;;5058922;28;20468;-62
2022/02/07 09:00:42;;;;;;;18.90;6.63;;;4.20;1.00;;;;;;5058408;28;20891;-62
2022/02/07 09:03:25;;;;;;;16.03;6.50;;;4.30;9.50;;;;;;5058300;28;20467;-62
2022/02/07 09:06:07;;;;;;;22.93;6.67;;;4.30;31.50;;;;;;5061549;28;20861;-62
2022/02/07 09:08:54;;;;;;;21.70;7.10;;;4.30;27.50;;;;;;5078047;28;20465;-62
2022/02/07 09:11:21;;;;;;;16.70;6.47;;;4.30;9.10;;;;;;5078292;28;20507;-61
2022/02/07 09:13:55;;;;;;;22.20;7.77;;;4.30;7.50;;;;;;5078506;28;20519;-62
2022/02/07 09:16:30;;;;;;;15.93;7.00;;;4.40;2.90;;;;;;5073537;28;20469;-64
2022/02/07 09:19:02;;;;;;;17.30;6.80;;;4.50;1.00;;;;;;5058389;28;20462;-64
2022/02/07 09:21:33;;;;;;;28.73;8.23;;;4.50;1.00;;;;;;5058048;28;20457;-64
2022/02/07 09:24:00;;;;;;;16.33;7.50;;;4.60;1.00;;;;;;5056721;28;20819;-64
2022/02/07 09:26:30;;;;;;;17.17;8.80;;;4.70;1.00;;;;;;5070578;28;20461;-64
2022/02/07 09:28:59;;;;;;;16.70;6.90;;;4.80;1.00;;;;;;5078293;28;20860;-64
2022/02/07 09:31:26;;;;;;;19.23;7.97;;;4.70;1.00;;;;;;5077532;28;20987;-64
2022/02/07 09:33:53;;;;;;;16.03;8.60;;;4.70;1.00;;;;;;5077665;28;20458;-64
2022/02/07 09:36:25;;;;;;;19.77;8.47;;;4.80;1.00;;;;;;5076892;28;20817;-64
2022/02/07 09:38:53;;;;;;;19.50;8.83;;;4.80;1.00;;;;;;5077924;28;20889;-65
2022/02/07 09:41:22;;;;;;;26.13;7.50;;;5.10;1.00;;;;;;5077582;28;20457;-63
2022/02/07 09:43:50;;;;;;;19.10;7.77;;;5.00;1.00;;;;;;5078143;28;20466;-63
2022/02/07 09:46:33;;;;;;;15.80;7.20;;;5.10;1.00;;;;;;5062912;28;20466;-63
2022/02/07 09:49:04;;;;;;;16.47;9.13;;;5.10;1.00;;;;;;5057523;28;20466;-63
2022/02/07 09:51:32;;;;;;;21.60;7.67;;;5.10;1.00;;;;;;5057272;28;20976;-64
2022/02/07 09:53:59;;;;;;;19.43;7.80;;;5.40;1.00;;;;;;5057058;28;20502;-64
2022/02/07 09:56:29;;;;;;;19.63;9.40;;;5.80;1.00;;;;;;5057337;28;20953;-63
2022/02/07 09:58:59;;;;;;;16.03;8.57;;;5.90;1.00;;;;;;5057425;28;20949;-63
2022/02/07 10:01:31;;;;;;;24.10;8.93;;;5.80;1.00;;;;;;5057385;28;20464;-63
2022/02/07 10:04:03;;;;;;;22.90;8.93;;;5.60;1.00;;;;;;5057198;28;20858;-64
2022/02/07 10:06:49;;;;;;;14.10;8.00;;;5.70;1.00;;;;;;5067555;28;20813;-64
2022/02/07 10:12:10;;;;;;;19.43;8.07;;;5.90;1.00;;;;;;5055875;28;21030;-66
2022/02/07 10:14:45;;;;;;;15.63;6.80;;;6.00;1.00;;;;;;5057010;28;20492;-64
2022/02/07 10:17:29;;;;;;;13.93;6.67;;;5.90;1.00;;;;;;5056769;28;20862;-64
2022/02/07 10:20:15;;;;;;;19.67;5.90;;;5.80;1.00;;;;;;5056930;28;20474;-65
2022/02/07 10:34:27;;;;;;;26.23;6.37;;;5.80;1.00;;;;;;5056773;28;20497;-65
2022/02/07 10:40:24;;;;;;;20.33;6.60;;;5.90;1.00;;;;;;5056806;28;20456;-63
2022/02/07 10:43:16;;;;;;;13.57;6.03;;;6.10;1.00;;;;;;5054825;28;20465;-63
2022/02/07 10:45:53;;;;;;;14.47;5.70;;;6.00;1.00;;;;;;5061442;28;20465;-63
2022/02/07 10:48:40;;;;;;;17.43;5.67;;;6.00;1.00;;;;;;5076799;28;20460;-63
2022/02/07 10:51:12;;;;;;;16.37;6.70;;;6.30;1.00;;;;;;5076373;28;20536;-63
2022/02/07 10:53:41;;;;;;;17.00;6.50;;;6.40;1.00;;;;;;5076774;28;20465;-63
2022/02/07 10:56:11;;;;;;;15.73;5.60;;;6.80;1.00;;;;;;5076266;28;20515;-63
2022/02/07 10:58:39;;;;;;;17.27;5.33;;;6.80;1.00;;;;;;5076832;28;20439;-63
2022/02/07 11:01:11;;;;;;;32.80;7.17;;;7.00;1.00;;;;;;5071450;28;20941;-63
2022/02/07 11:03:43;;;;;;;16.60;5.50;;;7.50;1.00;;;;;;5063312;28;20462;-62
2022/02/07 11:06:15;;;;;;;20.13;5.63;;;7.70;1.00;;;;;;5056332;28;20545;-62
2022/02/07 11:08:50;;;;;;;17.50;5.00;;;7.90;1.00;;;;;;5052328;28;20470;-62
2022/02/07 11:11:44;;;;;;;13.27;4.73;;;7.90;1.00;;;;;;5053198;28;20790;-62
2022/02/07 11:17:11;;;;;;;19.57;5.57;;;7.20;1.00;;;;;;5048454;28;20450;-62
2022/02/07 11:19:51;;;;;;;19.60;5.53;;;7.20;1.00;;;;;;5055198;28;20470;-62
2022/02/07 11:22:48;;;;;;;18.80;7.17;;;6.90;1.00;;;;;;5053467;28;20961;-62
2022/02/07 11:25:37;;;;;;;16.60;5.37;;;6.80;1.00;;;;;;5054916;28;20566;-62
2022/02/07 11:28:17;;;;;;;16.90;5.90;;;6.80;1.00;;;;;;5051766;28;20485;-62
2022/02/07 11:30:48;;;;;;;16.33;5.30;;;6.80;1.00;;;;;;5053000;28;20469;-62
2022/02/07 11:33:51;;;;;;;13.57;5.83;;;6.60;1.00;;;;;;5057185;28;20461;-62
2022/02/07 11:36:27;;;;;;;12.97;4.50;;;6.80;1.00;;;;;;5050558;28;20449;-62
2022/02/07 11:39:25;;;;;;;15.10;6.10;;;6.70;1.00;;;;;;5060188;28;20515;-61
2022/02/07 11:42:12;;;;;;;12.90;4.53;;;6.60;1.00;;;;;;5051571;28;20756;-61
2022/02/07 11:45:14;;;;;;;17.27;5.33;;;6.60;1.00;;;;;;5056337;28;20465;-61
2022/02/07 11:47:48;;;;;;;17.53;5.30;;;6.70;1.00;;;;;;5054800;28;20445;-61
2022/02/07 11:50:21;;;;;;;15.80;4.77;;;6.70;1.00;;;;;;5055631;28;20554;-61
2022/02/07 11:52:53;;;;;;;14.53;4.77;;;7.00;1.00;;;;;;5057499;28;20486;-61
2022/02/07 11:55:25;;;;;;;16.70;4.73;;;7.70;1.00;;;;;;5070432;28;20487;-61
2022/02/07 11:58:01;;;;;;;9.27;4.03;;;7.80;1.00;;;;;;5078931;28;20484;-61
2022/02/07 12:00:31;;;;;;;17.77;6.40;;;7.90;1.00;;;;;;5076781;28;20523;-61
2022/02/07 12:03:02;;;;;;;18.20;5.07;;;7.70;1.00;;;;;;5049700;28;20512;-61
2022/02/07 12:05:33;;;;;;;18.67;5.70;;;7.40;1.00;;;;;;5057513;28;20460;-61
2022/02/07 12:08:02;;;;;;;18.13;6.37;;;7.30;1.00;;;;;;5079258;28;20461;-61
2022/02/07 12:10:39;;;;;;;19.40;5.80;;;7.30;1.00;;;;;;5058845;28;20437;-61
2022/02/07 12:13:26;;;;;;;15.90;6.40;;;7.20;1.00;;;;;;5042126;28;20933;-61
2022/02/07 12:15:54;;;;;;;31.47;8.10;;;7.20;1.00;;;;;;5057665;28;20512;-61
2022/02/07 12:18:24;;;;;;;27.43;5.87;;;6.90;1.00;;;;;;5077637;28;20468;-62
2022/02/07 12:20:55;;;;;;;14.73;5.80;;;6.70;1.00;;;;;;5056267;28;20536;-62
2022/02/07 12:23:34;;;;;;;16.73;5.80;;;6.60;1.00;;;;;;5059748;28;20482;-62
2022/02/07 12:26:09;;;;;;;10.53;5.70;;;6.40;1.00;;;;;;5064667;28;20460;-62
2022/02/07 12:28:42;;;;;;;13.97;5.50;;;6.10;1.00;;;;;;5059979;28;21200;-63
2022/02/07 12:31:17;;;;;;;20.50;5.40;;;6.00;1.00;;;;;;5059596;28;20511;-61
2022/02/07 12:33:47;;;;;;;10.80;5.63;;;6.10;1.00;;;;;;5058818;28;20756;-62
2022/02/07 12:36:14;;;;;;;16.83;5.10;;;6.00;1.00;;;;;;5060038;28;20469;-61
2022/02/07 12:38:43;;;;;;;21.03;5.43;;;5.90;1.00;;;;;;5078768;28;20460;-61
2022/02/07 12:41:14;;;;;;;24.57;5.83;;;5.80;1.00;;;;;;5056378;28;20470;-59
2022/02/07 12:43:44;;;;;;;13.90;4.57;;;5.60;1.00;;;;;;5038590;28;20463;-60
2022/02/07 12:46:15;;;;;;;12.40;4.77;;;5.50;1.00;;;;;;5038945;28;20966;-60
2022/02/07 12:48:50;;;;;;;14.53;5.40;;;5.60;1.00;;;;;;5077520;28;20461;-60
2022/02/07 12:51:20;;;;;;;14.03;5.13;;;5.50;1.00;;;;;;5070726;28;20457;-62
2022/02/07 12:53:47;;;;;;;20.20;5.70;;;5.60;1.00;;;;;;5056381;28;20458;-63
2022/02/07 12:56:16;;;;;;;24.17;5.87;;;6.00;1.00;;;;;;5057462;28;20485;-63
2022/02/07 12:58:44;;;;;;;14.00;4.63;;;6.40;1.00;;;;;;5073156;28;20515;-61
2022/02/07 13:01:19;;;;;;;13.50;4.33;;;7.10;1.00;;;;;;5051553;28;20466;-61
2022/02/07 13:03:51;;;;;;;22.63;6.47;;;7.40;1.00;;;;;;5077582;28;20514;-61
2022/02/07 13:06:23;;;;;;;17.87;5.30;;;7.40;1.00;;;;;;5078256;28;20465;-62
2022/02/07 13:08:53;;;;;;;12.23;5.07;;;7.20;1.00;;;;;;5050623;28;20478;-62
2022/02/07 13:11:27;;;;;;;11.40;4.60;;;7.00;1.00;;;;;;5038673;28;20759;-62
2022/02/07 13:13:55;;;;;;;15.40;4.80;;;6.80;1.00;;;;;;5058313;28;20446;-62
2022/02/07 13:16:23;;;;;;;17.90;5.10;;;6.60;1.00;;;;;;5057897;28;20520;-62
2022/02/07 13:18:51;;;;;;;19.23;5.00;;;6.50;1.00;;;;;;5067133;28;21001;-62
2022/02/07 13:21:18;;;;;;;14.53;5.07;;;6.40;1.00;;;;;;5078241;28;20457;-62
2022/02/07 13:23:48;;;;;;;14.40;4.60;;;6.30;1.00;;;;;;5077212;28;20482;-62
2022/02/07 13:26:17;;;;;;;11.17;3.93;;;6.30;1.00;;;;;;5077914;28;20894;-62
2022/02/07 13:28:48;;;;;;;14.53;5.57;;;6.30;1.00;;;;;;5072099;28;20462;-62
2022/02/07 13:31:18;;;;;;;15.70;4.83;;;6.20;1.00;;;;;;5057877;28;20761;-62
2022/02/07 13:33:49;;;;;;;12.13;4.13;;;6.40;1.00;;;;;;5060082;28;20523;-62
2022/02/07 13:36:39;;;;;;;15.20;5.10;;;6.50;1.00;;;;;;5060309;28;20474;-62
2022/02/07 13:39:07;;;;;;;18.10;6.10;;;6.40;1.00;;;;;;5076129;28;20534;-62
2022/02/07 13:41:34;;;;;;;14.30;4.30;;;6.40;1.00;;;;;;5077720;28;20453;-62
2022/02/07 13:44:03;;;;;;;19.03;5.53;;;6.40;1.00;;;;;;5064230;28;20429;-62
2022/02/07 13:46:33;;;;;;;13.23;4.47;;;6.50;1.00;;;;;;5056824;28;20450;-62
2022/02/07 13:49:01;;;;;;;13.17;4.20;;;6.40;1.00;;;;;;5056468;28;20469;-62
2022/02/07 13:51:29;;;;;;;10.30;5.63;;;6.40;1.00;;;;;;5059191;28;20454;-62
2022/02/07 13:53:56;;;;;;;10.57;3.80;;;6.30;1.00;;;;;;5056414;28;20432;-62
2022/02/07 13:56:35;;;;;;;12.13;4.27;;;6.40;1.00;;;;;;5056601;28;20523;-63
2022/02/07 13:59:17;;;;;;;13.10;3.83;;;6.50;1.00;;;;;;5054571;28;20844;-63
2022/02/07 14:01:48;;;;;;;15.70;4.87;;;6.30;1.00;;;;;;5056008;28;20446;-63
2022/02/07 14:04:20;;;;;;;16.20;4.47;;;6.30;1.00;;;;;;5057830;28;20765;-63
2022/02/07 14:07:05;;;;;;;13.70;4.83;;;6.20;1.00;;;;;;5053389;28;20774;-63
2022/02/07 14:09:32;;;;;;;14.40;5.30;;;6.20;1.00;;;;;;5052365;28;20564;-63
2022/02/07 14:12:03;;;;;;;15.30;4.87;;;6.20;1.00;;;;;;5054058;28;20494;-63
2022/02/07 14:14:34;;;;;;;11.40;4.53;;;6.30;1.00;;;;;;5054409;28;20761;-63
2022/02/07 14:17:01;;;;;;;9.87;4.20;;;6.30;1.00;;;;;;5056602;28;20799;-63
2022/02/07 14:19:40;;;;;;;15.67;4.67;;;6.20;1.00;;;;;;5056512;28;20458;-63
2022/02/07 14:22:09;;;;;;;11.43;4.80;;;6.30;1.00;;;;;;5056581;28;20450;-63
2022/02/07 14:24:37;;;;;;;10.53;3.70;;;6.30;1.00;;;;;;5056175;28;20968;-63
2022/02/07 14:27:08;;;;;;;7.57;3.60;;;6.40;1.00;;;;;;5056331;28;20782;-63
2022/02/07 14:29:36;;;;;;;15.93;4.10;;;6.40;1.00;;;;;;5064130;28;20450;-63
2022/02/07 14:32:04;;;;;;;11.20;3.80;;;6.50;1.00;;;;;;5057600;28;20490;-63
2022/02/07 14:34:31;;;;;;;17.33;4.33;;;6.50;1.00;;;;;;5067000;28;20462;-63
2022/02/07 14:36:58;;;;;;;11.50;4.00;;;6.40;1.00;;;;;;5062858;28;20474;-63
2022/02/07 14:39:30;;;;;;;11.20;3.90;;;6.40;1.00;;;;;;5063370;28;20944;-63
2022/02/07 14:42:00;;;;;;;12.50;3.60;;;6.30;1.00;;;;;;5058181;28;20436;-63
2022/02/07 14:44:31;;;;;;;17.30;4.67;;;6.20;1.00;;;;;;5055850;28;20429;-63
2022/02/07 14:47:07;;;;;;;10.27;3.67;;;6.20;1.00;;;;;;5056319;28;20572;-63
2022/02/07 14:49:37;;;;;;;11.70;4.17;;;6.10;1.00;;;;;;5054433;28;20464;-63
2022/02/07 14:52:05;;;;;;;11.87;3.90;;;6.10;1.00;;;;;;5055690;28;20485;-63
2022/02/07 14:54:41;;;;;;;13.20;4.40;;;6.10;1.00;;;;;;5052401;28;20455;-62
2022/02/07 14:57:11;;;;;;;9.60;4.47;;;6.10;1.00;;;;;;5051607;28;20520;-62
2022/02/07 14:59:38;;;;;;;11.60;4.83;;;6.10;1.00;;;;;;5054986;28;20494;-63
2022/02/07 15:02:06;;;;;;;6.73;3.83;;;6.10;1.00;;;;;;5047535;28;20437;-62
2022/02/07 15:04:37;;;;;;;7.80;4.37;;;6.10;1.00;;;;;;5060068;28;20462;-62
2022/02/07 15:07:04;;;;;;;11.20;3.80;;;6.10;1.00;;;;;;5050094;28;20466;-63
2022/02/07 15:09:31;;;;;;;12.17;3.57;;;6.00;1.00;;;;;;5043114;28;20470;-62
2022/02/07 15:12:00;;;;;;;9.93;3.33;;;6.10;1.00;;;;;;5047535;28;20441;-62
2022/02/07 15:14:28;;;;;;;10.87;5.33;;;6.10;1.00;;;;;;5068245;28;20548;-62
2022/02/07 15:17:02;;;;;;;10.03;3.87;;;6.10;1.00;;;;;;5058226;28;20512;-62
2022/02/07 15:19:30;;;;;;;7.17;4.30;;;6.10;1.00;;;;;;5047545;28;20489;-62
2022/02/07 15:22:03;;;;;;;13.03;3.67;;;6.10;1.00;;;;;;5057073;28;20763;-62
2022/02/07 15:24:31;;;;;;;9.53;3.73;;;6.00;1.00;;;;;;5068402;28;20488;-62
2022/02/07 15:26:58;;;;;;;12.90;3.23;;;6.00;99.90;;;;;;5079982;28;20457;-62
2022/02/07 15:29:30;;;;;;;16.30;3.63;;;5.90;99.90;;;;;;5058354;28;20441;-62
2022/02/07 15:32:10;;;;;;;17.40;3.73;;;5.90;99.90;;;;;;5050682;28;20521;-62
2022/02/07 15:34:38;;;;;;;10.60;3.20;;;5.90;99.90;;;;;;5048125;28;20444;-62
2022/02/07 15:37:06;;;;;;;5.83;3.30;;;5.80;1.00;;;;;;5055633;28;20466;-62
2022/02/07 15:39:33;;;;;;;7.13;3.30;;;5.80;1.00;;;;;;5054902;28;20816;-62
2022/02/07 15:42:03;;;;;;;11.63;5.30;;;5.80;1.00;;;;;;5057998;28;20880;-62
2022/02/07 15:44:32;;;;;;;5.23;2.70;;;5.80;1.00;;;;;;5052174;28;20466;-62
2022/02/07 15:46:59;;;;;;;8.10;3.10;;;5.80;1.00;;;;;;5079857;28;20474;-62
2022/02/07 15:49:26;;;;;;;11.00;3.50;;;5.70;1.00;;;;;;5069411;28;20900;-62
2022/02/07 15:51:58;;;;;;;11.90;3.60;;;5.70;1.00;;;;;;5039851;28;20462;-62
2022/02/07 15:54:25;;;;;;;10.37;2.73;;;5.60;1.00;;;;;;5037928;28;20441;-62
2022/02/07 15:56:52;;;;;;;10.23;3.53;;;5.70;1.00;;;;;;5074238;28;20837;-62
2022/02/07 15:59:24;;;;;;;9.70;3.20;;;5.70;1.00;;;;;;5078504;28;20831;-62
2022/02/07 16:01:56;;;;;;;7.50;3.10;;;5.70;1.00;;;;;;5080175;28;20834;-62
2022/02/07 16:04:24;;;;;;;10.57;3.80;;;5.60;1.00;;;;;;5078174;28;20739;-62
2022/02/07 16:06:51;;;;;;;6.27;3.10;;;5.60;1.00;;;;;;5064056;28;20511;-62
2022/02/07 16:09:22;;;;;;;9.70;3.17;;;5.70;1.00;;;;;;5059468;28;20469;-62
2022/02/07 16:11:51;;;;;;;9.33;2.90;;;5.60;1.00;;;;;;5039641;28;20459;-62
2022/02/07 16:14:24;;;;;;;7.13;3.53;;;5.50;1.00;;;;;;5038958;28;20484;-62
2022/02/07 16:16:53;;;;;;;8.03;3.40;;;5.40;1.00;;;;;;5039711;28;20777;-62
2022/02/07 16:19:20;;;;;;;10.93;3.00;;;5.40;1.00;;;;;;5044505;28;20466;-62
2022/02/07 16:21:47;;;;;;;12.80;5.17;;;5.30;1.00;;;;;;5059165;28;20437;-62
2022/02/07 16:24:17;;;;;;;12.70;3.70;;;5.30;1.00;;;;;;5058768;28;20457;-62
2022/02/07 16:26:46;;;;;;;6.53;3.40;;;5.20;1.00;;;;;;5059189;28;20858;-62
2022/02/07 16:29:16;;;;;;;6.83;3.40;;;5.20;1.00;;;;;;5059454;28;20508;-62
2022/02/07 16:31:46;;;;;;;12.00;3.87;;;5.20;1.00;;;;;;5070239;28;20447;-62
2022/02/07 16:34:16;;;;;;;9.30;3.33;;;5.10;1.00;;;;;;5078509;28;20946;-62
2022/02/07 16:36:46;;;;;;;12.83;3.00;;;5.10;1.00;;;;;;5078697;28;20871;-62
2022/02/07 16:39:17;;;;;;;9.00;3.17;;;5.20;1.00;;;;;;5079152;28;20436;-62
2022/02/07 16:41:50;;;;;;;12.60;3.17;;;5.10;99.90;;;;;;5078148;28;20494;-62
2022/02/07 16:44:21;;;;;;;9.30;3.60;;;5.10;99.90;;;;;;5078868;28;20510;-62
2022/02/07 16:46:51;;;;;;;5.90;2.90;;;5.00;99.90;;;;;;5078355;28;20531;-62
2022/02/07 16:49:21;;;;;;;6.60;3.47;;;5.00;99.90;;;;;;5079233;28;20461;-62
2022/02/07 16:51:49;;;;;;;9.20;3.60;;;5.00;99.90;;;;;;5073182;28;20463;-62
2022/02/07 16:54:17;;;;;;;7.60;3.60;;;4.90;99.90;;;;;;5058739;28;20531;-62
2022/02/07 16:56:48;;;;;;;11.17;5.30;;;4.90;99.90;;;;;;5058311;28;20442;-62
2022/02/07 16:59:16;;;;;;;10.43;3.37;;;4.90;1.00;;;;;;5058865;28;20462;-62
2022/02/07 17:01:46;;;;;;;14.13;3.73;;;4.80;1.00;;;;;;5059038;28;20470;-62
2022/02/07 17:04:17;;;;;;;10.47;3.67;;;4.70;1.00;;;;;;5078396;28;20798;-62
2022/02/07 17:06:45;;;;;;;11.10;4.13;;;4.70;1.00;;;;;;5071611;28;20474;-62
2022/02/07 17:09:15;;;;;;;13.23;4.10;;;4.70;1.00;;;;;;5056972;28;20483;-62
2022/02/07 17:11:46;;;;;;;10.90;3.90;;;4.80;1.00;;;;;;5059047;28;20824;-62
2022/02/07 17:14:14;;;;;;;7.00;3.40;;;4.80;1.00;;;;;;5068792;28;20473;-61
2022/02/07 17:16:48;;;;;;;9.50;3.90;;;4.90;1.00;;;;;;5048966;28;20454;-61
2022/02/07 17:19:21;;;;;;;6.77;3.73;;;4.90;1.00;;;;;;5062114;28;20498;-62
2022/02/07 17:21:48;;;;;;;14.10;4.30;;;5.00;1.00;;;;;;5068907;28;20473;-62
2022/02/07 17:24:15;;;;;;;9.83;4.40;;;5.00;1.00;;;;;;5062110;28;20483;-62
2022/02/07 17:26:43;;;;;;;14.53;4.27;;;5.10;1.00;;;;;;5057571;28;20468;-62
2022/02/07 17:29:11;;;;;;;10.37;4.30;;;5.10;1.00;;;;;;5067731;28;20572;-62
2022/02/07 17:31:38;;;;;;;10.33;5.40;;;5.00;1.00;;;;;;5063552;28;20506;-62
2022/02/07 17:34:05;;;;;;;8.90;4.70;;;5.00;1.00;;;;;;5065826;28;20814;-62
2022/02/07 17:36:32;;;;;;;8.77;5.17;;;5.10;1.00;;;;;;5066403;28;20480;-61
2022/02/07 17:38:59;;;;;;;12.93;5.13;;;5.00;1.00;;;;;;5071209;28;21012;-62
2022/02/07 17:41:28;;;;;;;18.73;6.07;;;5.00;1.00;;;;;;5061520;28;20448;-62
2022/02/07 17:43:56;;;;;;;13.57;5.10;;;4.90;1.00;;;;;;5057187;28;20494;-62
2022/02/07 17:46:27;;;;;;;12.40;5.30;;;4.90;1.00;;;;;;5057087;28;20914;-62
2022/02/07 17:48:58;;;;;;;8.77;4.50;;;4.80;1.00;;;;;;5064773;28;20466;-62
2022/02/07 17:51:28;;;;;;;14.33;6.57;;;4.80;1.00;;;;;;5076835;28;20465;-62
2022/02/07 17:53:55;;;;;;;11.60;6.30;;;4.80;1.00;;;;;;5077024;28;20492;-62
2022/02/07 17:56:22;;;;;;;8.97;6.47;;;4.70;1.00;;;;;;5076423;28;20915;-62
2022/02/07 17:58:53;;;;;;;10.77;6.23;;;4.70;1.00;;;;;;5075414;28;20758;-62
2022/02/07 18:01:20;;;;;;;8.10;5.07;;;4.80;1.00;;;;;;5077613;28;20484;-62
2022/02/07 18:03:48;;;;;;;9.77;5.10;;;4.80;1.00;;;;;;5060036;28;20525;-62
2022/02/07 18:06:17;;;;;;;13.20;5.10;;;4.70;1.00;;;;;;5056238;28;20462;-62
2022/02/07 18:08:44;;;;;;;7.83;5.00;;;4.70;1.00;;;;;;5056217;28;20489;-62
2022/02/07 18:11:14;;;;;;;14.60;6.00;;;4.70;1.00;;;;;;5059724;28;20532;-62
2022/02/07 18:13:42;;;;;;;11.60;4.53;;;4.80;1.00;;;;;;5057430;28;20492;-62
2022/02/07 18:16:15;;;;;;;10.77;4.80;;;4.80;1.00;;;;;;5057058;28;20486;-62
2022/02/07 18:18:42;;;;;;;12.10;5.67;;;4.80;1.00;;;;;;5056920;28;20436;-62
2022/02/07 18:21:11;;;;;;;9.10;4.50;;;4.80;1.00;;;;;;5056962;28;20501;-62